Meteo


Dettagli e Storico

Webcam

Webcam in aeroporto – Aggiornata ogni minuto


Osservatorio Meteorologico Cocomaro di Cona – Ferrara

NOAA IMAGE

NOAA

Windy

METAR

Aviation Digital Data Service (ADDS)

Output produced by METARs form (1039 UTC 30 November 2022)
found at http://www.aviationweather.gov/metar/data/
 
METAR text: LIPF 300955Z 21005KT 8000 SCT040 07/02 Q1018 RMK BKN VIS MIN 8000
Conditions at: LIPF (FERRARA (AUT) , IT) observed 0955 UTC 30 November 2022
Temperature: 7.0°C (45°F)
Dewpoint: 2.0°C (36°F) [RH = 70%]
Pressure (altimeter): 30.06 inches Hg (1018.0 mb)
Winds: from the SSW (210 degrees) at 6 MPH (5 knots; 2.6 m/s)
Visibility: 5 miles ( 8 km)
Ceiling: at least 12,000 feet AGL
Clouds: scattered clouds at 4000 feet AGL
Weather: no significant weather observed at this time

METAR text: LIPE 301020Z 31004KT 280V340 5000 BR BKN040 06/05 Q1019
Conditions at: LIPE (BOLOGNA/BORGO (A, IT) observed 1020 UTC 30 November 2022
Temperature: 6.0°C (43°F)
Dewpoint: 5.0°C (41°F) [RH = 93%]
Pressure (altimeter): 30.09 inches Hg (1019.0 mb)
Winds: from the NW (310 degrees) at 5 MPH (4 knots; 2.1 m/s)
Visibility: 3 miles ( 5 km)
Ceiling: 4000 feet AGL
Clouds: broken clouds at 4000 feet AGL
Weather: BR  (mist)

Forecast for: LIPE (BOLOGNA/BORGO (A, IT)
Text: TAF LIPE 300500Z 3006/0106 29006KT 4000 BR SCT005 BKN040
Forecast period: 0600 to 0800 UTC 30 November 2022
Forecast type: FROM: standard forecast or significant change
Winds: from the WNW (290 degrees) at 7 MPH (6 knots; 3.1 m/s)
Visibility: 2.49 miles (4.01 km)
Ceiling: 4000 feet AGL
Clouds: scattered clouds at 500 feet AGL
broken clouds at 4000 feet AGL
Weather: BR  (mist)
Text: BECMG 3008/3010 7000
Forecast period: 0800 UTC 30 November 2022 to 0600 UTC 01 December 2022
Forecast type: BECOMING: Conditions expected to become as follows by 1000 UTC 30 November 2022
Winds: from the WNW (290 degrees) at 7 MPH (6 knots; 3.1 m/s)
Visibility: 4 miles (7 km)
Ceiling: 4000 feet AGL
Clouds: scattered clouds at 500 feet AGL
broken clouds at 4000 feet AGL
Weather: BR  (mist)

METAR text: LIPX 301020Z VRB03KT 9999 FEW050 09/01 Q1019
Conditions at: LIPX (VILLAFRANCA(CV/M, IT) observed 1020 UTC 30 November 2022
Temperature: 9.0°C (48°F)
Dewpoint: 1.0°C (34°F) [RH = 57%]
Pressure (altimeter): 30.09 inches Hg (1019.0 mb)
Winds: variable direction winds at 3 MPH (3 knots; 1.5 m/s)
Visibility: 6 or more miles (10+ km)
Ceiling: at least 12,000 feet AGL
Clouds: few clouds at 5000 feet AGL
Weather: no significant weather observed at this time

Forecast for: LIPX (VILLAFRANCA(CV/M, IT)
Text: TAF LIPX 300500Z 3006/0106 VRB05KT 9999 SCT050
Forecast period: 0600 UTC 30 November 2022 to 0600 UTC 01 December 2022
Forecast type: FROM: standard forecast or significant change
Winds: variable direction winds at 6 MPH (5 knots; 2.6 m/s)
Visibility: 6 or more miles (10+ km)
Ceiling: at least 12,000 feet AGL
Clouds: scattered clouds at 5000 feet AGL
Weather: no significant weather forecast for this period

METAR text: LIPZ 301020Z 03008KT CAVOK 08/00 Q1018 NOSIG
Conditions at: LIPZ (VENEZIA/TESSERA , IT) observed 1020 UTC 30 November 2022
Temperature: 8.0°C (46°F)
Dewpoint: 0.0°C (32°F) [RH = 57%]
Pressure (altimeter): 30.06 inches Hg (1018.0 mb)
Winds: from the NNE (30 degrees) at 9 MPH (8 knots; 4.1 m/s)
Visibility: 6 or more miles (10+ km)
Ceiling: ceiling and visibility are OK
Clouds: unknown
Weather: no significant weather observed at this time

Forecast for: LIPZ (VENEZIA/TESSERA , IT)
Text: TAF LIPZ 300500Z 3006/0112 02009KT 9999 FEW050
Forecast period: 0600 UTC 30 November 2022 to 1200 UTC 01 December 2022
Forecast type: FROM: standard forecast or significant change
Winds: from the NNE (20 degrees) at 10 MPH (9 knots; 4.6 m/s)
Visibility: 6 or more miles (10+ km)
Ceiling: at least 12,000 feet AGL
Clouds: few clouds at 5000 feet AGL
Weather: no significant weather forecast for this period